createdAt,value
2023-03-30T00:02:03.154Z,101497.63
2023-03-30T00:04:34.153Z,101499.20
2023-03-30T00:07:04.727Z,101498.91
2023-03-30T00:09:33.084Z,101498.04
2023-03-30T00:12:03.015Z,101497.30
2023-03-30T00:14:31.907Z,101505.27
2023-03-30T00:17:02.259Z,101504.27
2023-03-30T00:19:31.922Z,101504.59
2023-03-30T00:22:00.388Z,101504.66
2023-03-30T00:24:28.723Z,101506.94
2023-03-30T00:26:56.811Z,101508.69
2023-03-30T00:29:25.478Z,101509.41
2023-03-30T00:31:54.201Z,101512.48
2023-03-30T00:34:22.489Z,101510.23
2023-03-30T00:36:52.944Z,101508.88
2023-03-30T00:39:26.051Z,101507.27
2023-03-30T00:41:54.406Z,101509.69
2023-03-30T01:01:29.810Z,101519.20
2023-03-30T01:04:01.586Z,101515.80
2023-03-30T01:06:34.476Z,101516.75
2023-03-30T01:09:03.401Z,101520.40
2023-03-30T01:11:31.608Z,101524.32
2023-03-30T01:14:02.039Z,101523.25
2023-03-30T01:16:35.724Z,101523.35
2023-03-30T01:19:16.033Z,101524.06
2023-03-30T01:22:04.095Z,101522.79
2023-03-30T01:25:02.467Z,101523.05
2023-03-30T01:27:45.473Z,101525.80
2023-03-30T01:30:27.290Z,101528.89
2023-03-30T01:33:04.837Z,101525.58
2023-03-30T01:35:47.430Z,101526.50
2023-03-30T01:38:30.062Z,101520.97
2023-03-30T01:41:03.818Z,101522.05
2023-03-30T01:43:36.316Z,101519.60
2023-03-30T01:46:08.820Z,101514.30
2023-03-30T01:48:44.756Z,101518.88
2023-03-30T01:51:17.605Z,101520.17
2023-03-30T01:53:48.762Z,101519.15
2023-03-30T01:56:21.802Z,101521.03
2023-03-30T01:58:52.766Z,101517.55
2023-03-30T02:01:23.331Z,101515.96
2023-03-30T02:03:56.599Z,101513.86
2023-03-30T02:06:27.705Z,101517.23
2023-03-30T02:08:58.773Z,101519.15
2023-03-30T02:11:29.272Z,101515.89
2023-03-30T02:13:59.016Z,101523.58
2023-03-30T02:16:30.969Z,101526.77
2023-03-30T02:19:00.448Z,101529.00
2023-03-30T02:21:29.414Z,101530.65
2023-03-30T02:23:59.108Z,101533.55
2023-03-30T02:26:28.798Z,101533.67
2023-03-30T02:28:57.060Z,101528.69
2023-03-30T02:31:25.500Z,101531.83
2023-03-30T02:34:08.166Z,101530.64
2023-03-30T02:36:51.847Z,101531.73
2023-03-30T02:39:30.749Z,101536.69
2023-03-30T02:42:13.378Z,101541.28
2023-03-30T02:44:45.248Z,101541.09
2023-03-30T02:47:17.965Z,101544.02
2023-03-30T02:49:53.492Z,101544.44
2023-03-30T02:52:36.542Z,101542.56
2023-03-30T02:55:11.538Z,101541.35
2023-03-30T02:57:45.837Z,101540.56
2023-03-30T03:00:18.165Z,101542.41
2023-03-30T03:02:49.596Z,101542.96
2023-03-30T03:05:21.162Z,101544.50
2023-03-30T03:07:49.516Z,101546.05
2023-03-30T03:10:18.948Z,101544.17
2023-03-30T03:12:47.406Z,101549.14
2023-03-30T03:15:16.483Z,101552.15
2023-03-30T03:17:44.719Z,101555.85
2023-03-30T03:20:13.297Z,101555.19
2023-03-30T03:22:41.793Z,101558.17
2023-03-30T03:25:11.344Z,101559.45
2023-03-30T03:27:40.071Z,101554.65
2023-03-30T03:30:09.565Z,101557.52
2023-03-30T03:32:38.653Z,101560.27
2023-03-30T03:35:07.621Z,101562.52
2023-03-30T03:37:36.046Z,101564.93
2023-03-30T03:40:05.781Z,101571.14
2023-03-30T03:42:34.866Z,101571.82
2023-03-30T03:45:03.418Z,101569.50
2023-03-30T03:47:32.858Z,101571.89
2023-03-30T03:50:03.613Z,101573.67
2023-03-30T03:52:31.925Z,101582.61
2023-03-30T03:55:00.602Z,101582.78
2023-03-30T03:57:30.771Z,101586.23
2023-03-30T03:59:59.544Z,101593.80
2023-03-30T04:02:28.057Z,101593.44
2023-03-30T04:04:57.746Z,101593.83
2023-03-30T04:07:26.105Z,101597.30
2023-03-30T04:09:54.641Z,101600.51
2023-03-30T04:12:24.631Z,101605.10
2023-03-30T04:14:53.734Z,101600.99
2023-03-30T04:17:23.732Z,101603.22
2023-03-30T04:19:54.133Z,101603.64
2023-03-30T04:22:25.016Z,101607.11
2023-03-30T04:24:54.863Z,101608.80
2023-03-30T04:27:25.420Z,101615.45
2023-03-30T04:29:57.095Z,101627.62
2023-03-30T04:32:26.258Z,101635.81
2023-03-30T04:34:55.257Z,101633.15
2023-03-30T04:37:29.620Z,101634.19
2023-03-30T04:40:23.498Z,101637.23
2023-03-30T04:42:53.505Z,101643.71
2023-03-30T04:45:22.828Z,101645.63
2023-03-30T04:47:51.217Z,101647.06
2023-03-30T04:50:20.491Z,101653.84
2023-03-30T04:52:48.925Z,101653.04
2023-03-30T04:55:17.650Z,101654.55
2023-03-30T04:57:46.564Z,101662.29
2023-03-30T05:00:17.006Z,101662.21
2023-03-30T05:02:45.711Z,101663.55
2023-03-30T05:05:14.703Z,101662.23
2023-03-30T05:07:43.022Z,101659.27
2023-03-30T05:10:11.392Z,101661.29
2023-03-30T05:12:39.985Z,101655.50
2023-03-30T05:15:12.224Z,101653.60
2023-03-30T05:17:41.456Z,101646.23
2023-03-30T05:20:11.538Z,101644.66
2023-03-30T05:22:39.765Z,101641.36
2023-03-30T05:25:09.698Z,101635.85
2023-03-30T05:27:38.118Z,101628.52
2023-03-30T05:30:08.214Z,101630.79
2023-03-30T05:32:37.282Z,101634.22
2023-03-30T05:35:06.290Z,101640.30
2023-03-30T05:37:34.506Z,101643.39
2023-03-30T05:40:07.761Z,101649.95
2023-03-30T05:42:37.576Z,101651.48
2023-03-30T05:45:07.714Z,101649.99
2023-03-30T05:47:36.276Z,101647.76
2023-03-30T05:50:06.001Z,101648.25
2023-03-30T05:52:34.430Z,101639.95
2023-03-30T05:55:03.653Z,101643.94
2023-03-30T05:57:33.029Z,101650.30
2023-03-30T06:00:01.581Z,101653.88
2023-03-30T06:02:38.002Z,101652.67
2023-03-30T06:05:07.951Z,101652.13
2023-03-30T06:07:37.427Z,101651.27
2023-03-30T06:10:07.214Z,101650.97
2023-03-30T06:12:36.123Z,101655.45
2023-03-30T06:15:04.831Z,101659.66
2023-03-30T06:17:36.122Z,101660.02
2023-03-30T06:20:10.560Z,101665.78
2023-03-30T06:22:39.246Z,101666.11
2023-03-30T06:25:10.888Z,101665.69
2023-03-30T06:27:44.148Z,101668.95
2023-03-30T06:30:14.877Z,101673.49
2023-03-30T06:32:43.382Z,101676.72
2023-03-30T06:35:13.052Z,101674.08
2023-03-30T06:37:41.459Z,101675.23
2023-03-30T06:40:12.947Z,101675.55
2023-03-30T06:42:43.491Z,101677.80
2023-03-30T06:45:12.102Z,101675.88
2023-03-30T06:47:41.224Z,101680.10
2023-03-30T06:50:11.300Z,101680.42
2023-03-30T06:52:39.694Z,101687.30
2023-03-30T06:55:08.866Z,101690.39
2023-03-30T06:57:38.054Z,101686.10
2023-03-30T07:00:12.994Z,101684.33
2023-03-30T07:02:42.593Z,101681.30
2023-03-30T07:05:12.696Z,101675.01
2023-03-30T07:07:41.005Z,101668.49
2023-03-30T07:10:10.642Z,101675.64
2023-03-30T07:12:40.500Z,101674.14
2023-03-30T07:15:09.482Z,101673.04
2023-03-30T07:17:39.882Z,101671.88
2023-03-30T07:20:10.373Z,101667.75
2023-03-30T07:22:38.668Z,101661.09
2023-03-30T07:25:08.452Z,101659.00
2023-03-30T07:27:37.409Z,101653.62
2023-03-30T07:30:18.086Z,101654.23
2023-03-30T07:32:51.206Z,101651.06
2023-03-30T07:35:19.519Z,101656.48
2023-03-30T07:37:50.892Z,101652.84
2023-03-30T07:40:20.789Z,101657.95
2023-03-30T07:42:50.073Z,101655.55
2023-03-30T07:45:18.408Z,101660.29
2023-03-30T07:47:47.010Z,101662.94
2023-03-30T07:50:15.492Z,101650.27
2023-03-30T07:52:43.868Z,101651.61
2023-03-30T07:55:13.960Z,101646.33
2023-03-30T07:57:42.217Z,101647.16
2023-03-30T08:00:13.802Z,101645.34
2023-03-30T08:02:42.662Z,101639.95
2023-03-30T08:05:12.125Z,101640.71
2023-03-30T08:07:40.960Z,101637.20
2023-03-30T08:10:09.945Z,101636.95
2023-03-30T08:12:38.146Z,101644.88
2023-03-30T08:15:07.546Z,101641.77
2023-03-30T08:17:36.779Z,101642.75
2023-03-30T08:20:10.372Z,101639.73
2023-03-30T08:22:39.259Z,101635.86
2023-03-30T08:25:08.798Z,101628.91
2023-03-30T08:27:37.326Z,101635.60
2023-03-30T08:30:08.667Z,101634.84
2023-03-30T08:32:37.006Z,101628.04
2023-03-30T08:35:06.505Z,101621.86
2023-03-30T08:37:35.957Z,101625.29
2023-03-30T08:40:07.792Z,101618.60
2023-03-30T08:43:05.692Z,101616.20
2023-03-30T08:45:36.658Z,101606.92
2023-03-30T08:48:08.090Z,101611.04
2023-03-30T08:50:36.716Z,101613.30
2023-03-30T08:53:07.174Z,101609.30
2023-03-30T08:55:39.962Z,101605.54
2023-03-30T08:58:12.565Z,101609.39
2023-03-30T09:00:44.508Z,101602.43
2023-03-30T09:03:17.896Z,101599.79
2023-03-30T09:05:49.941Z,101589.56
2023-03-30T09:08:20.608Z,101589.28
2023-03-30T09:10:52.864Z,101587.20
2023-03-30T09:13:23.537Z,101589.26
2023-03-30T09:15:54.656Z,101585.48
2023-03-30T09:18:26.520Z,101576.52
2023-03-30T09:20:57.124Z,101576.36
2023-03-30T09:23:29.207Z,101573.91
2023-03-30T09:26:02.703Z,101566.23
2023-03-30T09:28:33.568Z,101560.95
2023-03-30T09:31:03.467Z,101558.48
2023-03-30T09:33:37.429Z,101553.54
2023-03-30T09:36:10.892Z,101554.23
2023-03-30T09:38:41.745Z,101545.04
2023-03-30T09:41:23.728Z,101544.75
2023-03-30T09:43:53.023Z,101542.91
2023-03-30T09:46:21.334Z,101539.75
2023-03-30T09:48:50.978Z,101543.42
2023-03-30T09:51:21.649Z,101525.87
2023-03-30T09:53:51.456Z,101523.84
2023-03-30T09:56:26.829Z,101518.80
2023-03-30T09:58:55.752Z,101517.90
2023-03-30T10:01:35.483Z,101514.33
2023-03-30T10:04:10.011Z,101512.44
2023-03-30T10:06:46.154Z,101506.70
2023-03-30T10:09:15.401Z,101512.11
2023-03-30T10:11:45.183Z,101506.79
2023-03-30T10:14:28.774Z,101515.45
2023-03-30T10:16:58.367Z,101498.45
2023-03-30T10:19:27.475Z,101483.91
2023-03-30T10:21:57.587Z,101480.19
2023-03-30T10:24:27.561Z,101475.96
2023-03-30T10:26:56.990Z,101474.01
2023-03-30T10:29:27.146Z,101470.73
2023-03-30T10:31:59.492Z,101468.89
2023-03-30T10:34:33.334Z,101460.64
2023-03-30T10:37:04.330Z,101457.42
2023-03-30T10:39:33.521Z,101462.60
2023-03-30T10:42:03.817Z,101466.33
2023-03-30T10:44:33.127Z,101461.66
2023-03-30T10:47:11.070Z,101452.48
2023-03-30T10:49:43.553Z,101443.35
2023-03-30T10:52:15.475Z,101444.56
2023-03-30T10:54:48.320Z,101438.53
2023-03-30T10:57:17.901Z,101431.70
2023-03-30T10:59:59.300Z,101419.35
2023-03-30T11:02:40.469Z,101405.70
2023-03-30T11:05:13.493Z,101394.17
2023-03-30T11:07:46.217Z,101394.27
2023-03-30T11:10:18.185Z,101398.00
2023-03-30T11:12:49.521Z,101388.36
2023-03-30T11:15:22.826Z,101381.42
2023-03-30T11:17:55.811Z,101373.77
2023-03-30T11:20:27.344Z,101366.04
2023-03-30T11:22:58.746Z,101363.86
2023-03-30T11:25:30.361Z,101364.08
2023-03-30T11:28:01.895Z,101357.26
2023-03-30T11:30:31.574Z,101356.48
2023-03-30T11:33:06.353Z,101361.27
2023-03-30T11:35:39.199Z,101354.42
2023-03-30T11:38:14.076Z,101342.58
2023-03-30T11:40:46.485Z,101344.38
2023-03-30T11:43:15.791Z,101343.52
2023-03-30T11:45:51.385Z,101332.48
2023-03-30T11:48:26.543Z,101325.38
2023-03-30T11:51:03.842Z,101324.91
2023-03-30T11:53:37.024Z,101322.13
2023-03-30T11:56:10.767Z,101316.89
2023-03-30T11:58:43.296Z,101326.04
2023-03-30T12:01:26.357Z,101319.89
2023-03-30T12:03:59.597Z,101305.33
2023-03-30T12:06:30.502Z,101300.27
2023-03-30T12:09:04.885Z,101301.20
2023-03-30T12:11:38.042Z,101298.76
2023-03-30T12:14:14.679Z,101289.48
2023-03-30T12:16:46.131Z,101288.96
2023-03-30T12:19:19.436Z,101290.39
2023-03-30T12:21:52.885Z,101280.27
2023-03-30T12:24:23.769Z,101285.52
2023-03-30T12:27:04.372Z,101282.05
2023-03-30T12:30:02.351Z,101274.35
2023-03-30T12:32:34.905Z,101268.55
2023-03-30T12:35:23.804Z,101269.07
2023-03-30T12:37:52.328Z,101275.39
2023-03-30T12:40:21.777Z,101258.90
2023-03-30T12:42:53.763Z,101254.10
2023-03-30T12:45:32.242Z,101252.09
2023-03-30T12:48:08.814Z,101247.29
2023-03-30T12:50:43.634Z,101243.22
2023-03-30T12:53:30.856Z,101239.49
2023-03-30T12:56:04.573Z,101234.50
2023-03-30T12:58:56.716Z,101224.20
2023-03-30T13:01:33.029Z,101224.13
2023-03-30T13:04:02.185Z,101220.94
2023-03-30T13:06:31.931Z,101216.80
2023-03-30T13:09:05.005Z,101225.27
2023-03-30T13:11:43.953Z,101229.05
2023-03-30T13:14:17.548Z,101220.55
2023-03-30T13:16:48.261Z,101207.95
2023-03-30T13:19:22.199Z,101215.10
2023-03-30T13:21:56.109Z,101204.18
2023-03-30T13:24:32.542Z,101207.41
2023-03-30T13:27:20.686Z,101201.17
2023-03-30T13:29:55.718Z,101210.06
2023-03-30T13:32:29.489Z,101195.38
2023-03-30T13:35:07.768Z,101183.21
2023-03-30T13:37:53.770Z,101187.17
2023-03-30T13:40:41.541Z,101184.27
2023-03-30T13:43:22.935Z,101179.47
2023-03-30T13:46:09.242Z,101175.70
2023-03-30T13:48:55.772Z,101164.34
2023-03-30T13:51:27.486Z,101169.46
2023-03-30T13:53:57.554Z,101165.66
2023-03-30T13:56:26.979Z,101160.21
2023-03-30T13:59:01.722Z,101156.85
2023-03-30T14:01:30.553Z,101153.75
2023-03-30T14:04:03.327Z,101160.90
2023-03-30T14:06:33.768Z,101147.62
2023-03-30T14:09:10.510Z,101149.41
2023-03-30T14:11:41.221Z,101148.92
2023-03-30T14:14:16.124Z,101147.44
2023-03-30T14:16:47.333Z,101144.36
2023-03-30T14:19:22.028Z,101138.48
2023-03-30T14:21:53.858Z,101132.45
2023-03-30T14:24:28.496Z,101124.73
2023-03-30T14:27:02.123Z,101124.59
2023-03-30T14:29:31.929Z,101119.97
2023-03-30T14:32:08.240Z,101122.55
2023-03-30T14:34:37.933Z,101123.04
2023-03-30T14:37:08.336Z,101115.58
2023-03-30T14:39:40.884Z,101115.22
2023-03-30T14:42:14.602Z,101111.58
2023-03-30T14:44:48.848Z,101103.25
2023-03-30T14:47:22.062Z,101101.08
2023-03-30T14:49:54.007Z,101098.73
2023-03-30T14:52:26.875Z,101101.52
2023-03-30T14:55:07.368Z,101090.21
2023-03-30T14:57:41.267Z,101090.30
2023-03-30T15:00:21.531Z,101086.77
2023-03-30T15:02:52.734Z,101087.44
2023-03-30T15:05:23.170Z,101085.46
2023-03-30T15:07:52.620Z,101086.10
2023-03-30T15:10:26.056Z,101085.05
2023-03-30T15:12:56.538Z,101088.71
2023-03-30T15:15:27.554Z,101081.27
2023-03-30T15:17:57.569Z,101076.77
2023-03-30T15:20:29.340Z,101085.39
2023-03-30T15:22:58.227Z,101077.27
2023-03-30T15:25:35.867Z,101070.10
2023-03-30T15:28:07.736Z,101065.75
2023-03-30T15:30:38.007Z,101071.13
2023-03-30T15:33:08.340Z,101064.89
2023-03-30T15:35:37.613Z,101060.05
2023-03-30T15:38:13.706Z,101059.02
2023-03-30T15:40:43.329Z,101058.41
2023-03-30T15:43:12.469Z,101062.77
2023-03-30T15:45:41.057Z,101059.38
2023-03-30T15:48:11.575Z,101058.11
2023-03-30T15:50:42.821Z,101061.40
2023-03-30T15:53:13.711Z,101060.26
2023-03-30T15:55:45.172Z,101064.13
2023-03-30T15:58:13.800Z,101058.98
2023-03-30T16:00:42.896Z,101057.54
2023-03-30T16:03:12.896Z,101055.31
2023-03-30T16:05:42.814Z,101053.52
2023-03-30T16:08:11.197Z,101054.08
2023-03-30T16:10:39.927Z,101053.20
2023-03-30T16:13:12.568Z,101055.88
2023-03-30T16:15:44.023Z,101056.03
2023-03-30T16:18:13.529Z,101053.52
2023-03-30T16:20:46.929Z,101058.19
2023-03-30T16:23:19.938Z,101057.11
2023-03-30T16:25:51.346Z,101064.89
2023-03-30T16:28:19.849Z,101071.90
2023-03-30T16:30:51.464Z,101066.77
2023-03-30T16:33:19.774Z,101065.23
2023-03-30T16:35:48.269Z,101065.94
2023-03-30T16:38:17.436Z,101064.36
2023-03-30T16:40:47.363Z,101063.80
2023-03-30T16:43:16.083Z,101059.05
2023-03-30T16:45:45.181Z,101060.22
2023-03-30T16:48:14.942Z,101059.31
2023-03-30T16:50:44.413Z,101059.41
2023-03-30T16:53:13.012Z,101061.41
2023-03-30T16:55:41.839Z,101057.81
2023-03-30T16:58:13.276Z,101058.39
2023-03-30T17:00:42.571Z,101059.31
2023-03-30T17:03:11.298Z,101057.24
2023-03-30T17:05:39.714Z,101058.48
2023-03-30T17:08:13.951Z,101054.30
2023-03-30T17:10:42.608Z,101055.02
2023-03-30T17:13:10.966Z,101051.52
2023-03-30T17:15:39.397Z,101052.04
2023-03-30T17:18:12.202Z,101048.55
2023-03-30T17:20:42.975Z,101046.44
2023-03-30T17:23:11.594Z,101046.44
2023-03-30T17:25:41.354Z,101040.67
2023-03-30T17:28:16.273Z,101038.20
2023-03-30T17:30:45.392Z,101039.77
2023-03-30T17:33:14.505Z,101040.14
2023-03-30T17:35:45.147Z,101038.77
2023-03-30T17:38:14.201Z,101038.42
2023-03-30T17:40:44.036Z,101035.64
2023-03-30T17:43:12.701Z,101032.84
2023-03-30T17:45:42.532Z,101029.34
2023-03-30T17:48:13.148Z,101020.76
2023-03-30T17:50:45.978Z,101014.98
2023-03-30T17:53:16.450Z,101014.09
2023-03-30T17:55:47.549Z,101017.60
2023-03-30T17:58:18.182Z,101022.67
2023-03-30T18:00:49.433Z,101028.11
2023-03-30T18:03:20.414Z,101029.34
2023-03-30T18:05:50.283Z,101029.16
2023-03-30T18:08:23.713Z,101024.08
2023-03-30T18:10:53.189Z,101022.51
2023-03-30T18:13:23.095Z,101025.67
2023-03-30T18:15:54.184Z,101023.21
2023-03-30T18:18:24.426Z,101022.70
2023-03-30T18:20:53.722Z,101022.69
2023-03-30T18:23:22.586Z,101021.29
2023-03-30T18:25:51.921Z,101017.10
2023-03-30T18:28:20.991Z,101015.70
2023-03-30T18:30:49.523Z,101013.41
2023-03-30T18:33:23.555Z,101013.77
2023-03-30T18:35:53.180Z,101018.31
2023-03-30T18:38:23.052Z,101013.77
2023-03-30T18:40:56.995Z,101007.11
2023-03-30T18:43:26.084Z,101006.94
2023-03-30T18:45:58.554Z,101002.73
2023-03-30T18:48:36.191Z,101000.09
2023-03-30T18:51:04.511Z,100995.35
2023-03-30T18:53:33.799Z,100992.69
2023-03-30T18:56:03.834Z,100985.66
2023-03-30T18:58:33.381Z,100981.98
2023-03-30T19:01:02.755Z,100986.37
2023-03-30T19:03:32.743Z,100990.92
2023-03-30T19:06:02.393Z,100992.84
2023-03-30T19:08:32.385Z,100992.48
2023-03-30T19:11:02.076Z,100993.55
2023-03-30T19:13:31.034Z,100986.90
2023-03-30T19:16:04.109Z,100982.02
2023-03-30T19:18:33.590Z,100977.11
2023-03-30T19:21:03.703Z,100969.77
2023-03-30T19:23:33.195Z,100969.61
2023-03-30T19:26:03.067Z,100963.68
2023-03-30T19:28:51.763Z,100964.73
2023-03-30T19:31:20.592Z,100963.84
2023-03-30T19:33:49.437Z,100965.58
2023-03-30T19:36:18.004Z,100958.93
2023-03-30T19:38:46.759Z,100960.80
2023-03-30T19:41:15.147Z,100961.30
2023-03-30T19:43:45.044Z,100952.28
2023-03-30T19:46:13.454Z,100949.41
2023-03-30T19:48:42.582Z,100945.39
2023-03-30T19:51:12.193Z,100950.77
2023-03-30T19:53:41.583Z,100947.04
2023-03-30T19:56:10.578Z,100941.06
2023-03-30T19:58:39.198Z,100939.14
2023-03-30T20:01:08.087Z,100936.00
2023-03-30T20:03:36.655Z,100930.92
2023-03-30T20:06:07.939Z,100929.16
2023-03-30T20:08:36.408Z,100923.16
2023-03-30T20:11:07.552Z,100920.84
2023-03-30T20:13:36.592Z,100920.85
2023-03-30T20:16:05.749Z,100923.00
2023-03-30T20:18:35.115Z,100921.15
2023-03-30T20:21:04.614Z,100919.50
2023-03-30T20:23:34.258Z,100918.89
2023-03-30T20:26:04.210Z,100915.29
2023-03-30T20:28:33.387Z,100914.99
2023-03-30T20:31:02.035Z,100908.73
2023-03-30T20:33:34.640Z,100906.65
2023-03-30T20:36:04.322Z,100903.52
2023-03-30T20:38:33.997Z,100898.29
2023-03-30T20:41:04.360Z,100892.33
2023-03-30T20:43:53.556Z,100883.92
2023-03-30T20:46:34.712Z,100880.95
2023-03-30T20:49:04.418Z,100881.50
2023-03-30T20:51:32.966Z,100884.30
2023-03-30T20:54:02.520Z,100882.38
2023-03-30T20:56:32.230Z,100882.20
2023-03-30T20:59:01.715Z,100882.91
2023-03-30T21:01:30.893Z,100876.96
2023-03-30T21:04:01.149Z,100871.55
2023-03-30T21:06:31.515Z,100868.75
2023-03-30T21:09:01.274Z,100867.89
2023-03-30T21:11:32.992Z,100867.36
2023-03-30T21:14:01.475Z,100865.60
2023-03-30T21:16:30.016Z,100860.71
2023-03-30T21:18:58.894Z,100860.35
2023-03-30T21:21:27.523Z,100862.96
2023-03-30T21:23:57.985Z,100859.11
2023-03-30T21:26:26.654Z,100857.86
2023-03-30T21:28:56.607Z,100854.70
2023-03-30T21:31:25.262Z,100852.09
2023-03-30T21:33:53.569Z,100850.01
2023-03-30T21:36:22.004Z,100851.58
2023-03-30T21:38:50.641Z,100850.73
2023-03-30T21:41:23.200Z,100850.58
2023-03-30T21:43:51.696Z,100849.58
2023-03-30T21:46:21.118Z,100849.58
2023-03-30T21:48:53.133Z,100846.43
2023-03-30T21:51:23.619Z,100839.60
2023-03-30T21:53:53.108Z,100838.70
2023-03-30T21:56:22.972Z,100831.17
2023-03-30T21:58:51.860Z,100820.34
2023-03-30T22:01:24.024Z,100819.29
2023-03-30T22:03:53.421Z,100818.93
2023-03-30T22:06:22.188Z,100817.52
2023-03-30T22:08:50.683Z,100811.42
2023-03-30T22:11:20.893Z,100801.48
2023-03-30T22:13:49.610Z,100775.79
2023-03-30T22:16:19.081Z,100773.86
2023-03-30T22:18:47.905Z,100778.23
2023-03-30T22:21:18.346Z,100772.12
2023-03-30T22:23:47.183Z,100772.82
2023-03-30T22:26:16.128Z,100776.14
2023-03-30T22:28:44.597Z,100772.31
2023-03-30T22:31:14.958Z,100771.59
2023-03-30T22:33:43.981Z,100770.55
2023-03-30T22:36:16.963Z,100771.77
2023-03-30T22:38:46.682Z,100771.05
2023-03-30T22:41:15.419Z,100771.06
2023-03-30T22:43:43.702Z,100769.13
2023-03-30T22:46:12.446Z,100767.73
2023-03-30T22:48:43.692Z,100764.59
2023-03-30T22:51:22.782Z,100761.80
2023-03-30T22:53:51.350Z,100760.77
2023-03-30T22:56:19.897Z,100754.66
2023-03-30T22:58:48.434Z,100753.27
2023-03-30T23:01:16.723Z,100750.30
2023-03-30T23:03:49.588Z,100739.83
2023-03-30T23:06:19.422Z,100738.63
2023-03-30T23:08:48.018Z,100731.98
2023-03-30T23:11:16.687Z,100726.55
2023-03-30T23:13:47.085Z,100721.46
2023-03-30T23:16:15.761Z,100719.20
2023-03-30T23:18:44.104Z,100716.06
2023-03-30T23:21:13.351Z,100720.61
2023-03-30T23:23:42.494Z,100721.83
2023-03-30T23:26:12.232Z,100720.98
2023-03-30T23:28:42.327Z,100723.41
2023-03-30T23:31:16.696Z,100725.33
2023-03-30T23:33:45.876Z,100718.85
2023-03-30T23:36:18.138Z,100713.75
2023-03-30T23:38:48.435Z,100705.48
2023-03-30T23:41:18.103Z,100698.80
2023-03-30T23:43:46.968Z,100689.16
2023-03-30T23:46:15.675Z,100696.85
2023-03-30T23:48:44.725Z,100698.14
2023-03-30T23:51:15.542Z,100693.82
2023-03-30T23:53:46.743Z,100695.05
2023-03-30T23:56:16.458Z,100689.31
2023-03-30T23:58:45.255Z,100683.52
